Time;durP1;ratioP1;P1;durP2;ratioP2;P2;SDS_P1;SDS_P2;PMS_P1;PMS_P2;Temp;Humidity;BMP_temperature;BMP_pressure;BME280_temperature;BME280_humidity;BME280_pressure;Samples;Min_cycle;Max_cycle;Signal;HPM_P1;HPM_P2
2023/08/13 00:02:05;;;;;;;;;;;15.70;99.90;;;;;;5072255;28;19920;-74
2023/08/13 00:04:37;;;;;;;;;;;15.70;99.90;;;;;;5040193;28;20427;-73
2023/08/13 00:07:02;;;;;;;;;;;15.60;99.90;;;;;;5072527;28;19927;-64
2023/08/13 00:09:28;;;;;;;;;;;15.60;99.90;;;;;;5075567;28;19920;-65
2023/08/13 00:11:54;;;;;;;;;;;15.60;99.90;;;;;;5075512;28;19973;-65
2023/08/13 00:14:20;;;;;;;;;;;15.60;99.90;;;;;;5059064;28;19921;-65
2023/08/13 00:16:47;;;;;;;;;;;15.60;99.90;;;;;;5075351;28;19928;-65
2023/08/13 00:19:17;;;;;;;;;;;15.60;99.90;;;;;;5075620;28;19920;-66
2023/08/13 00:21:42;;;;;;;;;;;15.60;99.90;;;;;;5041960;28;19920;-64
2023/08/13 00:24:08;;;;;;;;;;;15.60;99.90;;;;;;5075259;28;19920;-66
2023/08/13 00:26:34;;;;;;;;;;;15.60;99.90;;;;;;5075359;28;20300;-65
2023/08/13 00:29:00;;;;;;;;;;;15.60;99.90;;;;;;5075374;28;19927;-64
2023/08/13 00:31:25;;;;;;;;;;;15.60;99.90;;;;;;5058505;28;20019;-65
2023/08/13 00:33:51;;;;;;;;;;;15.60;99.90;;;;;;5076502;28;20326;-65
2023/08/13 00:36:17;;;;;;;;;;;15.60;99.90;;;;;;5058471;28;20407;-65
2023/08/13 00:38:42;;;;;;;;;;;15.70;99.90;;;;;;5076367;28;20019;-64
2023/08/13 00:41:08;;;;;;;;;;;15.70;99.90;;;;;;5058224;28;20340;-64
2023/08/13 00:43:35;;;;;;;;;;;15.80;99.90;;;;;;5074875;28;20387;-65
2023/08/13 00:46:04;;;;;;;;;;;15.80;99.90;;;;;;5058469;28;20287;-66
2023/08/13 00:48:30;;;;;;;;;;;15.80;99.90;;;;;;5058115;28;19924;-65
2023/08/13 00:50:56;;;;;;;;;;;15.90;99.90;;;;;;5057678;28;20024;-65
2023/08/13 00:53:25;;;;;;;;;;;15.90;99.90;;;;;;5075128;28;19972;-65
2023/08/13 00:55:51;;;;;;;;;;;15.90;99.90;;;;;;5074783;28;19921;-64
2023/08/13 00:58:17;;;;;;;;;;;15.90;99.90;;;;;;5074520;28;19925;-64
2023/08/13 01:00:43;;;;;;;;;;;16.00;99.90;;;;;;5074558;28;19920;-65
2023/08/13 01:03:09;;;;;;;;;;;15.90;99.90;;;;;;5074596;28;19932;-65
2023/08/13 01:05:44;;;;;;;;;;;16.00;99.90;;;;;;5074326;28;19920;-65
2023/08/13 01:08:13;;;;;;;;;;;16.00;99.90;;;;;;5074745;28;19943;-65
2023/08/13 01:10:43;;;;;;;;;;;16.00;99.90;;;;;;5058025;28;19925;-65
2023/08/13 01:13:09;;;;;;;;;;;16.00;99.90;;;;;;5074702;28;19921;-65
2023/08/13 01:15:39;;;;;;;;;;;16.00;99.90;;;;;;5075622;28;20368;-65
2023/08/13 01:18:05;;;;;;;;;;;16.00;99.90;;;;;;5057990;28;20275;-65
2023/08/13 01:20:35;;;;;;;;;;;16.00;99.90;;;;;;5073279;28;19921;-66
2023/08/13 01:23:01;;;;;;;;;;;16.00;99.90;;;;;;5074039;28;19924;-65
2023/08/13 01:25:27;;;;;;;;;;;16.00;99.90;;;;;;5074140;28;19932;-65
2023/08/13 01:28:12;;;;;;;;;;;16.00;99.90;;;;;;5057834;28;20007;-64
2023/08/13 01:30:45;;;;;;;;;;;16.00;99.90;;;;;;5075231;28;19924;-65
2023/08/13 01:33:19;;;;;;;;;;;16.10;99.90;;;;;;5073904;28;19927;-64
2023/08/13 01:35:46;;;;;;;;;;;16.00;99.90;;;;;;5057301;28;20143;-65
2023/08/13 01:38:15;;;;;;;;;;;16.10;99.90;;;;;;5073942;28;19974;-65
2023/08/13 01:40:50;;;;;;;;;;;16.10;99.90;;;;;;5073812;28;19920;-64
2023/08/13 01:43:16;;;;;;;;;;;16.10;99.90;;;;;;5073699;28;19970;-65
2023/08/13 01:45:42;;;;;;;;;;;16.10;99.90;;;;;;5073964;28;19986;-65
2023/08/13 01:48:08;;;;;;;;;;;16.10;99.90;;;;;;5073985;28;19920;-64
2023/08/13 01:50:37;;;;;;;;;;;16.10;99.90;;;;;;5073422;28;20337;-65
2023/08/13 01:53:03;;;;;;;;;;;16.00;99.90;;;;;;5073293;28;19924;-65
2023/08/13 01:55:29;;;;;;;;;;;16.00;99.90;;;;;;5073743;28;19924;-65
2023/08/13 01:57:55;;;;;;;;;;;16.00;99.90;;;;;;5073692;28;19921;-66
2023/08/13 02:00:20;;;;;;;;;;;15.90;99.90;;;;;;5073393;28;19927;-65
2023/08/13 02:02:46;;;;;;;;;;;15.80;99.90;;;;;;5073294;28;19932;-65
2023/08/13 02:05:12;;;;;;;;;;;15.80;99.90;;;;;;5073309;28;19924;-65
2023/08/13 02:07:40;;;;;;;;;;;15.80;99.90;;;;;;5073717;28;19946;-65
2023/08/13 02:10:11;;;;;;;;;;;15.70;99.90;;;;;;5073396;28;20006;-65
2023/08/13 02:12:41;;;;;;;;;;;15.70;99.90;;;;;;5040831;28;20483;-64
2023/08/13 02:15:06;;;;;;;;;;;15.60;99.90;;;;;;5074455;28;19921;-66
2023/08/13 02:17:32;;;;;;;;;;;15.60;99.90;;;;;;5073147;28;19974;-65
2023/08/13 02:20:01;;;;;;;;;;;15.60;99.90;;;;;;5074180;28;19920;-64
2023/08/13 02:22:26;;;;;;;;;;;15.60;99.90;;;;;;5072181;28;20019;-66
2023/08/13 02:24:52;;;;;;;;;;;15.50;99.90;;;;;;5073118;28;20359;-65
2023/08/13 02:27:17;;;;;;;;;;;15.50;99.90;;;;;;5073295;28;19920;-65
2023/08/13 02:29:43;;;;;;;;;;;15.50;99.90;;;;;;5056461;28;19928;-64
2023/08/13 02:32:12;;;;;;;;;;;15.50;99.90;;;;;;5072935;28;19920;-65
2023/08/13 02:34:55;;;;;;;;;;;15.50;99.90;;;;;;5057508;28;19963;-65
2023/08/13 02:37:20;;;;;;;;;;;15.40;99.90;;;;;;5056011;28;20261;-65
2023/08/13 02:39:46;;;;;;;;;;;15.40;99.90;;;;;;5072660;28;19920;-65
2023/08/13 02:42:12;;;;;;;;;;;15.30;99.90;;;;;;5072595;28;20065;-64
2023/08/13 02:44:40;;;;;;;;;;;15.30;99.90;;;;;;5039372;28;19924;-65
2023/08/13 02:47:09;;;;;;;;;;;15.30;99.90;;;;;;5055889;28;19921;-65
2023/08/13 02:49:47;;;;;;;;;;;15.20;99.90;;;;;;5058122;28;19925;-64
2023/08/13 02:52:16;;;;;;;;;;;15.20;99.90;;;;;;5072497;28;20396;-65
2023/08/13 02:54:48;;;;;;;;;;;15.20;99.90;;;;;;5056202;28;19920;-64
2023/08/13 02:57:13;;;;;;;;;;;15.20;99.90;;;;;;5056456;28;20296;-65
2023/08/13 02:59:39;;;;;;;;;;;15.20;99.90;;;;;;5055751;28;19920;-65
2023/08/13 03:02:08;;;;;;;;;;;15.20;99.90;;;;;;5055452;28;20430;-64
2023/08/13 03:04:37;;;;;;;;;;;15.20;99.90;;;;;;5073586;28;19920;-64
2023/08/13 03:07:06;;;;;;;;;;;15.20;99.90;;;;;;5039602;28;19928;-65
2023/08/13 03:09:38;;;;;;;;;;;15.10;99.90;;;;;;5072585;28;19927;-67
2023/08/13 03:12:05;;;;;;;;;;;15.10;99.90;;;;;;5055573;28;19928;-64
2023/08/13 03:14:30;;;;;;;;;;;15.10;99.90;;;;;;5072494;28;20426;-64
2023/08/13 03:16:57;;;;;;;;;;;15.10;99.90;;;;;;5072244;28;19920;-66
2023/08/13 03:19:22;;;;;;;;;;;15.00;99.90;;;;;;5039368;28;20288;-65
2023/08/13 03:21:51;;;;;;;;;;;15.00;99.90;;;;;;5072142;28;19920;-64
2023/08/13 03:24:26;;;;;;;;;;;15.00;99.90;;;;;;5072415;28;19924;-65
2023/08/13 03:26:52;;;;;;;;;;;15.00;99.90;;;;;;5056231;28;20421;-66
2023/08/13 03:29:21;;;;;;;;;;;15.00;99.90;;;;;;5072440;28;19921;-65
2023/08/13 03:31:47;;;;;;;;;;;15.00;99.90;;;;;;5055812;28;19920;-66
2023/08/13 03:34:12;;;;;;;;;;;15.10;99.90;;;;;;5038884;28;19920;-65
2023/08/13 03:36:38;;;;;;;;;;;15.10;99.90;;;;;;5072025;28;20342;-72
2023/08/13 03:39:04;;;;;;;;;;;15.10;99.90;;;;;;5072067;28;20399;-74
2023/08/13 03:41:32;;;;;;;;;;;15.10;99.90;;;;;;5055360;28;19947;-73
2023/08/13 03:43:58;;;;;;;;;;;15.10;99.90;;;;;;5074982;28;20311;-73
2023/08/13 03:46:33;;;;;;;;;;;15.00;99.90;;;;;;5076194;28;19921;-73
2023/08/13 03:48:59;;;;;;;;;;;15.00;99.90;;;;;;5059671;28;19927;-74
2023/08/13 03:51:24;;;;;;;;;;;15.00;99.90;;;;;;5059048;28;19924;-73
2023/08/13 03:53:50;;;;;;;;;;;15.00;99.90;;;;;;5077409;28;19921;-74
2023/08/13 03:56:26;;;;;;;;;;;15.10;99.90;;;;;;5059320;28;20011;-72
2023/08/13 03:58:54;;;;;;;;;;;15.00;99.90;;;;;;5075836;28;20295;-72
2023/08/13 04:01:20;;;;;;;;;;;15.00;99.90;;;;;;5076181;28;19921;-72
2023/08/13 04:03:46;;;;;;;;;;;15.00;99.90;;;;;;5075696;28;19924;-72
2023/08/13 04:06:11;;;;;;;;;;;15.00;99.90;;;;;;5075901;28;19965;-72
2023/08/13 04:08:37;;;;;;;;;;;15.00;99.90;;;;;;5076119;28;20398;-72
2023/08/13 04:11:03;;;;;;;;;;;14.90;99.90;;;;;;5059258;28;19921;-73
2023/08/13 04:13:29;;;;;;;;;;;14.90;99.90;;;;;;5076156;28;20388;-72
2023/08/13 04:15:54;;;;;;;;;;;15.00;99.90;;;;;;5075689;28;19954;-73
2023/08/13 04:18:20;;;;;;;;;;;14.90;99.90;;;;;;5075545;28;19928;-72
2023/08/13 04:20:46;;;;;;;;;;;14.90;99.90;;;;;;5057697;28;20376;-72
2023/08/13 04:23:12;;;;;;;;;;;14.90;99.90;;;;;;5058770;28;19924;-73
2023/08/13 04:25:38;;;;;;;;;;;14.90;99.90;;;;;;5075652;28;20382;-71
2023/08/13 04:28:04;;;;;;;;;;;14.90;99.90;;;;;;5059089;28;20372;-72
2023/08/13 04:30:29;;;;;;;;;;;14.90;99.90;;;;;;5075409;28;19932;-71
2023/08/13 04:32:56;;;;;;;;;;;14.90;99.90;;;;;;5059059;28;20368;-73
2023/08/13 04:35:40;;;;;;;;;;;14.80;99.90;;;;;;5058677;28;19921;-73
2023/08/13 04:38:06;;;;;;;;;;;14.90;99.90;;;;;;5075790;28;19920;-73
2023/08/13 04:40:34;;;;;;;;;;;14.90;99.90;;;;;;5043209;28;20015;-72
2023/08/13 04:43:00;;;;;;;;;;;14.90;99.90;;;;;;5076608;28;20416;-72
2023/08/13 04:45:26;;;;;;;;;;;14.90;99.90;;;;;;5075237;28;19986;-73
2023/08/13 04:48:08;;;;;;;;;;;14.90;99.90;;;;;;5075072;28;20376;-65
2023/08/13 04:50:34;;;;;;;;;;;14.90;99.90;;;;;;5058448;28;20015;-64
2023/08/13 04:53:00;;;;;;;;;;;14.90;99.90;;;;;;5075881;28;20376;-64
2023/08/13 04:55:32;;;;;;;;;;;15.00;99.90;;;;;;5056943;28;19967;-65
2023/08/13 04:57:57;;;;;;;;;;;15.00;99.90;;;;;;5074583;28;19931;-65
2023/08/13 05:00:23;;;;;;;;;;;15.00;99.90;;;;;;5074577;28;19921;-65
2023/08/13 05:02:49;;;;;;;;;;;15.10;99.90;;;;;;5074814;28;19982;-65
2023/08/13 05:05:15;;;;;;;;;;;15.20;99.90;;;;;;5041095;28;19928;-64
2023/08/13 05:07:40;;;;;;;;;;;15.30;99.90;;;;;;5074893;28;19920;-66
2023/08/13 05:10:06;;;;;;;;;;;15.40;99.90;;;;;;5075968;28;20002;-65
2023/08/13 05:12:32;;;;;;;;;;;15.40;99.90;;;;;;5074388;28;19921;-64
2023/08/13 05:14:58;;;;;;;;;;;15.50;99.90;;;;;;5074632;28;19928;-64
2023/08/13 05:17:24;;;;;;;;;;;15.60;99.90;;;;;;5074174;28;20016;-63
2023/08/13 05:19:50;;;;;;;;;;;15.60;99.90;;;;;;5074237;28;19920;-65
2023/08/13 05:22:16;;;;;;;;;;;15.60;99.90;;;;;;5057531;28;20360;-65
2023/08/13 05:24:41;;;;;;;;;;;15.70;99.90;;;;;;5074354;28;19942;-64
2023/08/13 05:27:07;;;;;;;;;;;15.70;99.90;;;;;;5057871;28;19931;-66
2023/08/13 05:29:33;;;;;;;;;;;15.80;99.90;;;;;;5074038;28;19921;-65
2023/08/13 05:31:59;;;;;;;;;;;15.80;99.90;;;;;;5075408;28;19920;-65
2023/08/13 05:34:27;;;;;;;;;;;15.90;99.90;;;;;;5073936;28;19924;-65
2023/08/13 05:36:53;;;;;;;;;;;15.90;99.90;;;;;;5057577;28;19921;-65
2023/08/13 05:39:19;;;;;;;;;;;16.00;99.90;;;;;;5057510;28;19920;-66
2023/08/13 05:41:45;;;;;;;;;;;16.10;99.90;;;;;;5073743;28;19927;-66
2023/08/13 05:44:11;;;;;;;;;;;16.30;99.90;;;;;;5073605;28;19928;-64
2023/08/13 05:46:57;;;;;;;;;;;16.80;99.90;;;;;;5073641;28;19947;-66
2023/08/13 05:49:23;;;;;;;;;;;16.90;99.90;;;;;;5073272;28;19920;-65
2023/08/13 05:51:49;;;;;;;;;;;16.90;99.90;;;;;;5073321;28;19924;-65
2023/08/13 05:54:23;;;;;;;;;;;16.90;99.90;;;;;;5056956;28;20296;-65
2023/08/13 05:56:49;;;;;;;;;;;17.30;99.90;;;;;;5073598;28;20349;-65
2023/08/13 05:59:15;;;;;;;;;;;17.70;99.90;;;;;;5074823;28;19959;-65
2023/08/13 06:01:40;;;;;;;;;;;18.30;99.90;;;;;;5040161;28;19964;-65
2023/08/13 06:04:26;;;;;;;;;;;18.50;99.90;;;;;;5073220;28;19976;-65
2023/08/13 06:06:52;;;;;;;;;;;18.90;99.90;;;;;;5072911;28;19921;-65
2023/08/13 06:09:19;;;;;;;;;;;19.10;99.90;;;;;;5056458;28;19920;-64
2023/08/13 06:11:45;;;;;;;;;;;19.40;99.90;;;;;;5072832;28;20335;-64
2023/08/13 06:14:10;;;;;;;;;;;19.90;99.90;;;;;;5056900;28;19920;-64
2023/08/13 06:16:36;;;;;;;;;;;19.90;99.90;;;;;;5056453;28;19924;-64
2023/08/13 06:19:02;;;;;;;;;;;20.20;99.90;;;;;;5056707;28;19920;-65
2023/08/13 06:21:28;;;;;;;;;;;20.10;99.90;;;;;;5072907;28;19932;-65
2023/08/13 06:23:53;;;;;;;;;;;19.80;99.90;;;;;;5056373;28;19994;-65
2023/08/13 06:26:25;;;;;;;;;;;19.60;99.90;;;;;;5040187;28;19920;-65
2023/08/13 06:28:51;;;;;;;;;;;19.80;99.90;;;;;;5056639;28;19979;-65
2023/08/13 06:31:18;;;;;;;;;;;20.00;99.90;;;;;;5039774;28;19925;-64
2023/08/13 06:33:44;;;;;;;;;;;20.20;99.90;;;;;;5039591;28;20012;-65
2023/08/13 06:36:09;;;;;;;;;;;20.50;99.90;;;;;;5074308;28;20432;-65
2023/08/13 06:38:37;;;;;;;;;;;20.50;99.90;;;;;;5073026;28;19966;-65
2023/08/13 06:41:03;;;;;;;;;;;20.80;99.90;;;;;;5073004;28;19920;-65
2023/08/13 06:43:28;;;;;;;;;;;21.00;99.90;;;;;;5072649;28;19958;-65
2023/08/13 06:45:56;;;;;;;;;;;21.20;99.90;;;;;;5071933;28;20386;-66
2023/08/13 06:48:22;;;;;;;;;;;21.50;99.90;;;;;;5072635;28;20358;-67
2023/08/13 06:50:54;;;;;;;;;;;22.00;99.90;;;;;;5056030;28;20299;-66
2023/08/13 06:53:29;;;;;;;;;;;22.20;99.90;;;;;;5041635;28;19924;-67
2023/08/13 06:55:55;;;;;;;;;;;22.30;99.90;;;;;;5055757;28;19974;-66
2023/08/13 06:58:20;;;;;;;;;;;22.40;99.90;;;;;;5055832;28;19920;-65
2023/08/13 07:00:46;;;;;;;;;;;22.50;99.90;;;;;;5072378;28;19970;-67
2023/08/13 07:03:11;;;;;;;;;;;22.70;99.90;;;;;;5072397;28;19920;-65
2023/08/13 07:05:38;;;;;;;;;;;22.60;99.90;;;;;;5072287;28;19929;-67
2023/08/13 07:08:24;;;;;;;;;;;22.90;99.90;;;;;;5072694;28;19920;-74
2023/08/13 07:10:50;;;;;;;;;;;22.90;99.90;;;;;;5072180;28;19920;-74
2023/08/13 07:13:16;;;;;;;;;;;22.80;99.90;;;;;;5072547;28;20299;-73
2023/08/13 07:15:41;;;;;;;;;;;22.60;99.90;;;;;;5039066;28;19969;-73
2023/08/13 07:18:07;;;;;;;;;;;22.50;99.90;;;;;;5071736;28;19925;-72
2023/08/13 07:20:36;;;;;;;;;;;22.60;99.90;;;;;;5072563;28;20014;-72
2023/08/13 07:23:04;;;;;;;;;;;22.90;99.90;;;;;;5072698;28;20291;-73
2023/08/13 07:25:29;;;;;;;;;;;22.90;99.90;;;;;;5039851;28;19928;-73
2023/08/13 07:28:01;;;;;;;;;;;23.10;99.90;;;;;;5055739;28;20003;-74
2023/08/13 07:30:27;;;;;;;;;;;23.40;99.90;;;;;;5072550;28;20003;-73
2023/08/13 07:32:52;;;;;;;;;;;23.60;99.90;;;;;;5072345;28;19979;-73
2023/08/13 07:35:27;;;;;;;;;;;23.30;99.90;;;;;;5072366;28;19974;-73
2023/08/13 07:37:53;;;;;;;;;;;23.10;99.90;;;;;;5072344;28;19921;-74
2023/08/13 07:40:18;;;;;;;;;;;23.10;99.90;;;;;;5055651;28;20026;-76
2023/08/13 07:42:44;;;;;;;;;;;23.30;99.90;;;;;;5055771;28;19921;-74
2023/08/13 07:45:10;;;;;;;;;;;23.50;99.90;;;;;;5055937;28;19924;-74
2023/08/13 07:47:36;;;;;;;;;;;23.40;99.90;;;;;;5055685;28;19920;-74
2023/08/13 07:50:04;;;;;;;;;;;23.70;99.90;;;;;;5055556;28;19920;-73
2023/08/13 07:52:34;;;;;;;;;;;23.90;99.90;;;;;;5055354;28;20437;-73
2023/08/13 07:55:00;;;;;;;;;;;23.70;99.90;;;;;;5072540;28;19924;-74
2023/08/13 07:57:26;;;;;;;;;;;23.40;99.90;;;;;;5072508;28;20007;-73
2023/08/13 07:59:51;;;;;;;;;;;23.20;99.90;;;;;;5072203;28;19968;-73
2023/08/13 08:02:17;;;;;;;;;;;23.10;99.90;;;;;;5071910;28;20045;-74
2023/08/13 08:04:47;;;;;;;;;;;23.00;99.90;;;;;;5055806;28;19932;-74
2023/08/13 08:07:13;;;;;;;;;;;23.20;99.90;;;;;;5072412;28;19921;-73
2023/08/13 08:09:39;;;;;;;;;;;23.30;99.90;;;;;;5072180;28;19942;-74
2023/08/13 08:12:04;;;;;;;;;;;23.30;99.90;;;;;;5072385;28;19925;-73
2023/08/13 08:14:30;;;;;;;;;;;23.40;99.90;;;;;;5072048;28;19920;-75
2023/08/13 08:17:00;;;;;;;;;;;23.50;99.90;;;;;;5055364;28;20391;-73
2023/08/13 08:19:25;;;;;;;;;;;23.80;99.90;;;;;;5055595;28;19928;-73
2023/08/13 08:21:51;;;;;;;;;;;23.70;99.90;;;;;;5071858;28;20296;-73
2023/08/13 08:24:17;;;;;;;;;;;23.90;99.90;;;;;;5055369;28;19929;-73
2023/08/13 08:26:43;;;;;;;;;;;23.80;99.90;;;;;;5038533;28;19979;-74
2023/08/13 08:29:08;;;;;;;;;;;23.90;99.90;;;;;;5056397;28;19920;-73
2023/08/13 08:31:34;;;;;;;;;;;24.10;99.90;;;;;;5058824;28;19920;-72
2023/08/13 08:34:00;;;;;;;;;;;24.20;99.90;;;;;;5075800;28;20357;-73
2023/08/13 08:36:26;;;;;;;;;;;24.20;99.90;;;;;;5059299;28;20430;-73
2023/08/13 08:38:51;;;;;;;;;;;24.10;99.90;;;;;;5075017;28;19924;-73
2023/08/13 08:41:18;;;;;;;;;;;24.00;99.90;;;;;;5075393;28;19971;-74
2023/08/13 08:43:44;;;;;;;;;;;24.20;99.90;;;;;;5058314;28;20020;-73
2023/08/13 08:46:12;;;;;;;;;;;24.30;99.90;;;;;;5075241;28;19924;-75
2023/08/13 08:48:39;;;;;;;;;;;24.40;99.90;;;;;;5075355;28;20269;-74
2023/08/13 08:51:06;;;;;;;;;;;24.40;99.90;;;;;;5075100;28;19927;-73
2023/08/13 08:53:38;;;;;;;;;;;24.50;99.90;;;;;;5058278;28;19921;-72
2023/08/13 08:56:04;;;;;;;;;;;24.70;99.90;;;;;;5058799;28;20368;-67
2023/08/13 08:58:30;;;;;;;;;;;24.60;99.90;;;;;;5058662;28;20282;-67
2023/08/13 09:01:00;;;;;;;;;;;24.50;99.90;;;;;;5074878;28;19927;-68
2023/08/13 09:03:29;;;;;;;;;;;24.60;99.90;;;;;;5074675;28;19966;-68
2023/08/13 09:05:58;;;;;;;;;;;24.50;99.90;;;;;;5074636;28;19924;-68
2023/08/13 09:08:24;;;;;;;;;;;24.60;99.90;;;;;;5057800;28;19920;-67
2023/08/13 09:10:53;;;;;;;;;;;24.70;99.90;;;;;;5074773;28;19920;-68
2023/08/13 09:13:19;;;;;;;;;;;24.70;99.90;;;;;;5074361;28;19920;-68
2023/08/13 09:15:48;;;;;;;;;;;24.70;99.90;;;;;;5074718;28;19946;-67
2023/08/13 09:18:13;;;;;;;;;;;24.70;99.90;;;;;;5074630;28;19943;-66
2023/08/13 09:20:44;;;;;;;;;;;24.70;99.90;;;;;;5074689;28;19920;-66
2023/08/13 09:23:10;;;;;;;;;;;24.70;99.90;;;;;;5057650;28;20376;-67
2023/08/13 09:25:37;;;;;;;;;;;24.70;99.90;;;;;;5074210;28;20003;-68
2023/08/13 09:28:03;;;;;;;;;;;24.80;99.90;;;;;;5074349;28;20369;-67
2023/08/13 09:30:32;;;;;;;;;;;25.00;99.90;;;;;;5058289;28;19924;-67
2023/08/13 09:32:59;;;;;;;;;;;25.10;99.90;;;;;;5057717;28;19925;-66
2023/08/13 09:35:25;;;;;;;;;;;25.20;99.90;;;;;;5074016;28;19920;-67
2023/08/13 09:37:53;;;;;;;;;;;25.30;99.90;;;;;;5074079;28;19920;-68
2023/08/13 09:40:19;;;;;;;;;;;25.40;99.90;;;;;;5073546;28;20280;-67
2023/08/13 09:42:59;;;;;;;;;;;25.40;99.90;;;;;;5073899;28;19920;-67
2023/08/13 09:45:26;;;;;;;;;;;25.40;99.90;;;;;;5040590;28;19924;-67
2023/08/13 09:47:54;;;;;;;;;;;25.40;99.90;;;;;;5057713;28;20364;-67
2023/08/13 09:50:21;;;;;;;;;;;25.60;99.90;;;;;;5074049;28;19921;-68
2023/08/13 09:52:47;;;;;;;;;;;25.50;99.90;;;;;;5073439;28;19968;-68
2023/08/13 09:55:15;;;;;;;;;;;25.60;99.90;;;;;;5040763;28;19931;-68
2023/08/13 09:57:43;;;;;;;;;;;25.60;99.90;;;;;;5073552;28;19920;-68
2023/08/13 10:00:09;;;;;;;;;;;25.50;99.90;;;;;;5073777;28;19920;-67
2023/08/13 10:02:35;;;;;;;;;;;25.50;99.90;;;;;;5056702;28;19920;-67
2023/08/13 10:05:02;;;;;;;;;;;25.50;99.90;;;;;;5073609;28;19924;-67
2023/08/13 10:07:28;;;;;;;;;;;25.50;99.90;;;;;;5073793;28;20417;-67
2023/08/13 10:09:54;;;;;;;;;;;25.60;99.90;;;;;;5073361;28;19920;-68
2023/08/13 10:12:20;;;;;;;;;;;25.70;99.90;;;;;;5058036;28;20311;-75
2023/08/13 10:14:49;;;;;;;;;;;25.60;99.90;;;;;;5058913;28;19920;-75
2023/08/13 10:17:18;;;;;;;;;;;25.70;99.90;;;;;;5074514;28;19950;-74
2023/08/13 10:19:50;;;;;;;;;;;25.70;99.90;;;;;;5074551;28;19971;-73
2023/08/13 10:22:23;;;;;;;;;;;25.70;99.90;;;;;;5058486;28;19990;-73
2023/08/13 10:24:48;;;;;;;;;;;25.50;99.90;;;;;;5057971;28;19924;-74
2023/08/13 10:27:14;;;;;;;;;;;25.40;99.30;;;;;;5058737;28;19986;-73
2023/08/13 10:29:41;;;;;;;;;;;25.30;99.80;;;;;;5041481;28;19920;-75
2023/08/13 10:32:25;;;;;;;;;;;25.30;99.90;;;;;;5059274;28;19947;-73
2023/08/13 10:34:51;;;;;;;;;;;25.40;99.90;;;;;;5058902;28;19973;-75
2023/08/13 10:37:18;;;;;;;;;;;25.30;99.00;;;;;;5075470;28;19924;-75
2023/08/13 10:39:44;;;;;;;;;;;25.10;99.00;;;;;;5074186;28;19920;-74
2023/08/13 10:42:31;;;;;;;;;;;24.80;99.30;;;;;;5058559;28;19927;-74
2023/08/13 10:45:04;;;;;;;;;;;24.40;99.30;;;;;;5058456;28;19924;-73
2023/08/13 10:47:39;;;;;;;;;;;24.30;99.90;;;;;;5074416;28;19924;-74
2023/08/13 10:50:13;;;;;;;;;;;24.40;99.90;;;;;;5074293;28;19956;-72
2023/08/13 10:52:39;;;;;;;;;;;24.60;99.90;;;;;;5074861;28;19974;-74
2023/08/13 10:55:05;;;;;;;;;;;24.80;99.90;;;;;;5073547;28;20380;-75
2023/08/13 10:57:30;;;;;;;;;;;25.10;99.90;;;;;;5058265;28;19920;-73
2023/08/13 10:59:57;;;;;;;;;;;25.40;99.90;;;;;;5074016;28;19920;-74
2023/08/13 11:02:24;;;;;;;;;;;25.40;99.90;;;;;;5075865;28;19921;-74
2023/08/13 11:04:50;;;;;;;;;;;25.60;99.90;;;;;;5075139;28;20011;-72
2023/08/13 11:07:15;;;;;;;;;;;25.50;99.90;;;;;;5056451;28;19924;-74
2023/08/13 11:09:58;;;;;;;;;;;;;;;;;;;;;
2023/08/13 11:12:26;;;;;;;;;;;25.30;99.00;;;;;;5072352;28;19920;-74
2023/08/13 11:14:52;;;;;;;;;;;25.10;99.70;;;;;;5072965;28;19960;-76
2023/08/13 11:17:18;;;;;;;;;;;25.00;99.90;;;;;;5040674;28;19925;-74
2023/08/13 11:19:43;;;;;;;;;;;25.10;99.90;;;;;;5075107;28;19921;-75
2023/08/13 11:22:09;;;;;;;;;;;25.00;98.90;;;;;;5074228;28;20011;-73
2023/08/13 11:24:36;;;;;;;;;;;24.90;99.70;;;;;;5057400;28;20413;-74
2023/08/13 11:27:02;;;;;;;;;;;24.80;99.60;;;;;;5058593;28;19920;-74
2023/08/13 11:29:28;;;;;;;;;;;24.60;99.90;;;;;;5074417;28;19931;-73
2023/08/13 11:31:53;;;;;;;;;;;24.50;99.90;;;;;;5058062;28;19927;-74
2023/08/13 11:34:19;;;;;;;;;;;24.40;99.90;;;;;;5074978;28;19921;-75
2023/08/13 11:36:46;;;;;;;;;;;24.30;99.90;;;;;;5074224;28;19927;-73
2023/08/13 11:39:16;;;;;;;;;;;24.10;99.90;;;;;;5057823;28;19920;-73
2023/08/13 11:41:46;;;;;;;;;;;24.00;99.90;;;;;;5073299;28;19971;-75
2023/08/13 11:44:30;;;;;;;;;;;23.80;99.90;;;;;;5073423;28;19959;-74
2023/08/13 11:46:56;;;;;;;;;;;23.70;99.90;;;;;;5055894;28;19925;-68
2023/08/13 11:49:42;;;;;;;;;;;23.50;99.90;;;;;;5055199;28;19956;-67
2023/08/13 11:52:10;;;;;;;;;;;23.50;99.90;;;;;;5071318;28;19972;-68
2023/08/13 11:54:53;;;;;;;;;;;23.40;99.90;;;;;;5055164;28;19925;-67
2023/08/13 11:57:23;;;;;;;;;;;23.50;99.90;;;;;;5071894;28;19920;-68
2023/08/13 11:59:51;;;;;;;;;;;23.60;99.90;;;;;;5055489;28;19927;-67
2023/08/13 12:02:20;;;;;;;;;;;23.70;99.90;;;;;;5055827;28;19926;-67
2023/08/13 12:04:47;;;;;;;;;;;23.80;99.90;;;;;;5074308;28;19925;-67
2023/08/13 12:07:12;;;;;;;;;;;23.80;99.90;;;;;;5075867;28;19920;-67
2023/08/13 12:09:38;;;;;;;;;;;23.80;99.90;;;;;;5059106;28;19935;-66
2023/08/13 12:12:04;;;;;;;;;;;23.80;99.90;;;;;;5059383;28;20010;-68
2023/08/13 12:14:33;;;;;;;;;;;23.70;99.90;;;;;;5059819;28;19920;-67
2023/08/13 12:16:58;;;;;;;;;;;23.70;99.90;;;;;;5059279;28;19969;-67
2023/08/13 12:19:24;;;;;;;;;;;23.70;99.90;;;;;;5075484;28;19957;-68
2023/08/13 12:21:50;;;;;;;;;;;23.70;99.90;;;;;;5075676;28;19921;-68
2023/08/13 12:24:15;;;;;;;;;;;23.70;99.90;;;;;;5058526;28;19921;-68
2023/08/13 12:26:41;;;;;;;;;;;23.70;99.90;;;;;;5042116;28;19974;-68
2023/08/13 12:31:03;;;;;;;7.18;1.88;;;23.70;99.90;;;;;;5102299;27;20304;-66
2023/08/13 12:33:29;;;;;;;6.95;1.63;;;23.70;99.90;;;;;;4947682;28;20139;-65
2023/08/13 12:35:55;;;;;;;7.78;2.00;;;23.70;99.90;;;;;;5108617;28;20096;-66
2023/08/13 12:38:21;;;;;;;8.75;2.08;;;23.50;99.90;;;;;;5092783;28;20044;-67
2023/08/13 12:40:47;;;;;;;8.40;2.10;;;23.30;99.90;;;;;;5041516;28;20056;-66
2023/08/13 12:43:13;;;;;;;7.60;2.10;;;23.30;99.90;;;;;;5091373;28;20044;-66
2023/08/13 12:45:39;;;;;;;7.38;2.20;;;23.20;99.90;;;;;;5091507;28;20039;-66
2023/08/13 12:48:05;;;;;;;7.90;2.25;;;23.10;99.90;;;;;;5075706;28;20093;-66
2023/08/13 12:50:31;;;;;;;8.43;2.35;;;23.10;99.90;;;;;;5075582;28;20055;-65
2023/08/13 12:53:00;;;;;;;8.73;2.10;;;23.00;99.90;;;;;;5059174;28;20036;-66
2023/08/13 12:55:26;;;;;;;9.68;2.40;;;23.00;99.90;;;;;;5093197;28;20093;-65
2023/08/13 12:57:54;;;;;;;8.13;2.30;;;23.00;99.90;;;;;;5092423;28;20047;-67
2023/08/13 13:00:19;;;;;;;9.05;2.30;;;23.10;99.90;;;;;;5092786;28;20040;-67
2023/08/13 13:02:45;;;;;;;7.60;2.25;;;23.10;99.90;;;;;;5092410;28;20043;-67
2023/08/13 13:05:11;;;;;;;8.68;2.28;;;23.10;99.90;;;;;;5092450;28;20061;-68
2023/08/13 13:07:37;;;;;;;9.13;2.30;;;23.20;99.90;;;;;;5092196;28;20126;-66
2023/08/13 13:10:06;;;;;;;7.93;2.35;;;23.20;99.90;;;;;;5092086;28;20377;-67
2023/08/13 13:12:52;;;;;;;8.88;2.35;;;23.40;99.90;;;;;;5092040;28;20090;-67
2023/08/13 13:15:18;;;;;;;10.98;2.58;;;23.30;99.90;;;;;;5092055;28;20063;-67
2023/08/13 13:17:43;;;;;;;8.55;2.35;;;23.40;99.90;;;;;;5092255;28;20447;-66
2023/08/13 13:20:13;;;;;;;9.68;2.53;;;23.50;99.90;;;;;;5091783;28;20039;-67
2023/08/13 13:22:42;;;;;;;10.02;2.58;;;23.50;99.90;;;;;;5091868;28;20050;-67
2023/08/13 13:25:11;;;;;;;9.27;2.60;;;23.50;99.90;;;;;;5091916;28;20040;-73
2023/08/13 13:27:37;;;;;;;8.82;2.65;;;23.30;99.90;;;;;;5092088;28;20062;-73
2023/08/13 13:30:06;;;;;;;10.38;2.75;;;23.20;99.90;;;;;;5091946;28;20056;-73
2023/08/13 13:32:35;;;;;;;10.35;2.63;;;23.20;99.90;;;;;;5059497;28;20044;-66
2023/08/13 13:35:02;;;;;;;9.63;2.75;;;23.10;99.90;;;;;;5091600;28;20036;-66
2023/08/13 13:37:32;;;;;;;7.68;2.30;;;23.10;99.90;;;;;;5108694;28;20075;-67
2023/08/13 13:39:58;;;;;;;8.75;2.47;;;23.20;99.90;;;;;;5109998;28;20051;-67
2023/08/13 13:42:24;;;;;;;9.25;2.55;;;23.10;99.90;;;;;;5061111;28;20087;-67
2023/08/13 13:44:49;;;;;;;9.93;2.83;;;23.10;99.90;;;;;;5077854;28;20499;-67
2023/08/13 13:47:15;;;;;;;9.30;2.50;;;23.10;99.90;;;;;;5078223;28;20044;-66
2023/08/13 13:50:01;;;;;;;11.18;2.80;;;23.20;99.90;;;;;;5077526;28;20131;-67
2023/08/13 13:52:27;;;;;;;10.18;2.80;;;23.30;99.90;;;;;;5077278;28;20044;-66
2023/08/13 13:54:55;;;;;;;10.50;2.50;;;23.30;99.90;;;;;;5078066;28;20035;-66
2023/08/13 13:57:23;;;;;;;9.88;2.55;;;23.30;99.90;;;;;;5077942;28;20133;-66
2023/08/13 13:59:49;;;;;;;9.20;2.63;;;23.30;99.90;;;;;;5077998;28;20146;-67
2023/08/13 14:02:15;;;;;;;10.43;2.70;;;23.30;99.90;;;;;;5078031;28;20602;-71
2023/08/13 14:04:41;;;;;;;9.30;2.80;;;23.40;99.90;;;;;;5077971;28;20123;-72
2023/08/13 14:07:10;;;;;;;8.38;2.45;;;23.50;99.90;;;;;;5077740;28;20040;-68
2023/08/13 14:09:36;;;;;;;9.10;2.50;;;23.60;99.90;;;;;;5044146;28;20071;-68
2023/08/13 14:12:01;;;;;;;7.85;2.40;;;23.70;99.90;;;;;;5077742;28;20102;-67